sensor_id;sensor_type;location;lat;lon;timestamp;temperature;humidity
64833;HTU21D;51290;45.060;38.948;2024-02-04T00:00:46;5.80;73.99
64833;HTU21D;51290;45.060;38.948;2024-02-04T00:03:12;5.83;74.00
64833;HTU21D;51290;45.060;38.948;2024-02-04T00:05:38;5.84;74.02
64833;HTU21D;51290;45.060;38.948;2024-02-04T00:08:04;5.85;74.07
64833;HTU21D;51290;45.060;38.948;2024-02-04T00:10:30;5.86;74.12
64833;HTU21D;51290;45.060;38.948;2024-02-04T00:12:56;5.87;74.11
64833;HTU21D;51290;45.060;38.948;2024-02-04T00:15:22;5.87;74.11
64833;HTU21D;51290;45.060;38.948;2024-02-04T00:17:48;5.87;74.09
64833;HTU21D;51290;45.060;38.948;2024-02-04T00:20:14;5.89;74.14
64833;HTU21D;51290;45.060;38.948;2024-02-04T00:22:40;5.90;74.16
64833;HTU21D;51290;45.060;38.948;2024-02-04T00:25:06;5.89;74.18
64833;HTU21D;51290;45.060;38.948;2024-02-04T00:27:35;5.89;74.24
64833;HTU21D;51290;45.060;38.948;2024-02-04T00:30:01;5.89;74.23
64833;HTU21D;51290;45.060;38.948;2024-02-04T00:32:27;5.89;74.22
64833;HTU21D;51290;45.060;38.948;2024-02-04T00:34:53;5.87;74.24
64833;HTU21D;51290;45.060;38.948;2024-02-04T00:37:19;5.89;74.25
64833;HTU21D;51290;45.060;38.948;2024-02-04T00:39:45;5.89;74.25
64833;HTU21D;51290;45.060;38.948;2024-02-04T00:42:11;5.87;74.22
64833;HTU21D;51290;45.060;38.948;2024-02-04T00:44:38;5.87;74.25
64833;HTU21D;51290;45.060;38.948;2024-02-04T00:47:04;5.84;74.29
64833;HTU21D;51290;45.060;38.948;2024-02-04T00:49:30;5.84;74.41
64833;HTU21D;51290;45.060;38.948;2024-02-04T00:51:56;5.83;74.46
64833;HTU21D;51290;45.060;38.948;2024-02-04T00:54:22;5.82;74.47
64833;HTU21D;51290;45.060;38.948;2024-02-04T00:56:48;5.82;74.50
64833;HTU21D;51290;45.060;38.948;2024-02-04T00:59:14;5.83;74.49
64833;HTU21D;51290;45.060;38.948;2024-02-04T01:01:40;5.83;74.47
64833;HTU21D;51290;45.060;38.948;2024-02-04T01:04:06;5.82;74.55
64833;HTU21D;51290;45.060;38.948;2024-02-04T01:06:32;5.83;74.59
64833;HTU21D;51290;45.060;38.948;2024-02-04T01:08:58;5.82;74.61
64833;HTU21D;51290;45.060;38.948;2024-02-04T01:11:24;5.81;74.67
64833;HTU21D;51290;45.060;38.948;2024-02-04T01:13:50;5.80;74.75
64833;HTU21D;51290;45.060;38.948;2024-02-04T01:16:16;5.80;74.79
64833;HTU21D;51290;45.060;38.948;2024-02-04T01:18:42;5.81;74.80
64833;HTU21D;51290;45.060;38.948;2024-02-04T01:21:08;5.82;74.80
64833;HTU21D;51290;45.060;38.948;2024-02-04T01:23:36;5.81;74.84
64833;HTU21D;51290;45.060;38.948;2024-02-04T01:26:03;5.82;74.88
64833;HTU21D;51290;45.060;38.948;2024-02-04T01:28:29;5.82;74.92
64833;HTU21D;51290;45.060;38.948;2024-02-04T01:30:55;5.83;74.95
64833;HTU21D;51290;45.060;38.948;2024-02-04T01:33:21;5.85;74.95
64833;HTU21D;51290;45.060;38.948;2024-02-04T01:35:47;5.87;74.97
64833;HTU21D;51290;45.060;38.948;2024-02-04T01:38:13;5.91;74.96
64833;HTU21D;51290;45.060;38.948;2024-02-04T01:40:40;5.94;74.96
64833;HTU21D;51290;45.060;38.948;2024-02-04T01:43:06;5.96;74.93
64833;HTU21D;51290;45.060;38.948;2024-02-04T01:45:32;5.99;74.85
64833;HTU21D;51290;45.060;38.948;2024-02-04T01:47:58;6.00;74.79
64833;HTU21D;51290;45.060;38.948;2024-02-04T01:50:24;6.04;74.76
64833;HTU21D;51290;45.060;38.948;2024-02-04T01:52:51;6.05;74.76
64833;HTU21D;51290;45.060;38.948;2024-02-04T01:55:18;6.09;74.71
64833;HTU21D;51290;45.060;38.948;2024-02-04T01:57:44;6.13;74.67
64833;HTU21D;51290;45.060;38.948;2024-02-04T02:00:10;6.17;74.64
64833;HTU21D;51290;45.060;38.948;2024-02-04T02:02:41;6.20;74.57
64833;HTU21D;51290;45.060;38.948;2024-02-04T02:05:08;6.25;74.51
64833;HTU21D;51290;45.060;38.948;2024-02-04T02:07:34;6.28;74.41
64833;HTU21D;51290;45.060;38.948;2024-02-04T02:10:00;6.30;74.30
64833;HTU21D;51290;45.060;38.948;2024-02-04T02:13:11;6.33;74.25
64833;HTU21D;51290;45.060;38.948;2024-02-04T02:15:50;6.35;74.17
64833;HTU21D;51290;45.060;38.948;2024-02-04T02:18:23;6.37;74.08
64833;HTU21D;51290;45.060;38.948;2024-02-04T02:21:30;6.38;74.01
64833;HTU21D;51290;45.060;38.948;2024-02-04T02:26:36;6.42;73.90
64833;HTU21D;51290;45.060;38.948;2024-02-04T02:29:05;6.42;73.82
64833;HTU21D;51290;45.060;38.948;2024-02-04T02:31:31;6.45;73.77
64833;HTU21D;51290;45.060;38.948;2024-02-04T02:33:58;6.48;73.70
64833;HTU21D;51290;45.060;38.948;2024-02-04T02:36:26;6.49;73.53
64833;HTU21D;51290;45.060;38.948;2024-02-04T02:39:13;6.50;73.42
64833;HTU21D;51290;45.060;38.948;2024-02-04T02:41:41;6.53;73.35
64833;HTU21D;51290;45.060;38.948;2024-02-04T02:44:08;6.53;73.31
64833;HTU21D;51290;45.060;38.948;2024-02-04T02:46:36;6.54;73.25
64833;HTU21D;51290;45.060;38.948;2024-02-04T02:49:03;6.55;73.16
64833;HTU21D;51290;45.060;38.948;2024-02-04T02:51:29;6.56;73.13
64833;HTU21D;51290;45.060;38.948;2024-02-04T02:53:55;6.57;73.03
64833;HTU21D;51290;45.060;38.948;2024-02-04T02:56:21;6.57;73.03
64833;HTU21D;51290;45.060;38.948;2024-02-04T02:58:47;6.56;72.93
64833;HTU21D;51290;45.060;38.948;2024-02-04T03:01:13;6.56;72.87
64833;HTU21D;51290;45.060;38.948;2024-02-04T03:03:39;6.56;72.85
64833;HTU21D;51290;45.060;38.948;2024-02-04T03:06:05;6.55;72.87
64833;HTU21D;51290;45.060;38.948;2024-02-04T03:08:32;6.56;72.87
64833;HTU21D;51290;45.060;38.948;2024-02-04T03:10:58;6.55;72.88
64833;HTU21D;51290;45.060;38.948;2024-02-04T03:13:23;6.58;72.87
64833;HTU21D;51290;45.060;38.948;2024-02-04T03:15:49;6.57;72.87
64833;HTU21D;51290;45.060;38.948;2024-02-04T03:18:15;6.57;72.86
64833;HTU21D;51290;45.060;38.948;2024-02-04T03:20:41;6.58;72.84
64833;HTU21D;51290;45.060;38.948;2024-02-04T03:23:07;6.58;72.83
64833;HTU21D;51290;45.060;38.948;2024-02-04T03:25:33;6.57;72.82
64833;HTU21D;51290;45.060;38.948;2024-02-04T03:27:59;6.55;72.83
64833;HTU21D;51290;45.060;38.948;2024-02-04T03:30:25;6.54;72.88
64833;HTU21D;51290;45.060;38.948;2024-02-04T03:32:51;6.52;72.90
64833;HTU21D;51290;45.060;38.948;2024-02-04T03:35:18;6.50;72.92
64833;HTU21D;51290;45.060;38.948;2024-02-04T03:37:43;6.51;72.99
64833;HTU21D;51290;45.060;38.948;2024-02-04T03:40:10;6.50;73.04
64833;HTU21D;51290;45.060;38.948;2024-02-04T03:42:36;6.51;73.03
64833;HTU21D;51290;45.060;38.948;2024-02-04T03:45:03;6.51;73.07
64833;HTU21D;51290;45.060;38.948;2024-02-04T03:47:29;6.51;73.05
64833;HTU21D;51290;45.060;38.948;2024-02-04T03:49:55;6.52;73.07
64833;HTU21D;51290;45.060;38.948;2024-02-04T03:52:21;6.53;73.08
64833;HTU21D;51290;45.060;38.948;2024-02-04T03:54:47;6.56;73.05
64833;HTU21D;51290;45.060;38.948;2024-02-04T03:57:13;6.56;73.02
64833;HTU21D;51290;45.060;38.948;2024-02-04T03:59:39;6.56;73.02
64833;HTU21D;51290;45.060;38.948;2024-02-04T04:02:05;6.58;73.06
64833;HTU21D;51290;45.060;38.948;2024-02-04T04:04:30;6.58;73.09
64833;HTU21D;51290;45.060;38.948;2024-02-04T04:06:56;6.60;73.10
64833;HTU21D;51290;45.060;38.948;2024-02-04T04:09:23;6.65;73.09
64833;HTU21D;51290;45.060;38.948;2024-02-04T04:11:49;6.66;73.11
64833;HTU21D;51290;45.060;38.948;2024-02-04T04:14:15;6.68;73.10
64833;HTU21D;51290;45.060;38.948;2024-02-04T04:16:41;6.72;73.07
64833;HTU21D;51290;45.060;38.948;2024-02-04T04:19:06;6.75;73.07
64833;HTU21D;51290;45.060;38.948;2024-02-04T04:21:32;6.79;73.06
64833;HTU21D;51290;45.060;38.948;2024-02-04T04:23:58;6.82;73.03
64833;HTU21D;51290;45.060;38.948;2024-02-04T04:26:24;6.84;72.99
64833;HTU21D;51290;45.060;38.948;2024-02-04T04:28:50;6.86;72.93
64833;HTU21D;51290;45.060;38.948;2024-02-04T04:31:16;6.88;72.83
64833;HTU21D;51290;45.060;38.948;2024-02-04T04:33:42;6.89;72.74
64833;HTU21D;51290;45.060;38.948;2024-02-04T04:36:08;6.89;72.74
64833;HTU21D;51290;45.060;38.948;2024-02-04T04:38:34;6.91;72.74
64833;HTU21D;51290;45.060;38.948;2024-02-04T04:41:00;6.93;72.77
64833;HTU21D;51290;45.060;38.948;2024-02-04T04:43:26;6.93;72.77
64833;HTU21D;51290;45.060;38.948;2024-02-04T04:45:52;6.95;72.72
64833;HTU21D;51290;45.060;38.948;2024-02-04T04:48:18;6.96;72.72
64833;HTU21D;51290;45.060;38.948;2024-02-04T04:50:44;6.96;72.70
64833;HTU21D;51290;45.060;38.948;2024-02-04T04:53:10;6.97;72.70
64833;HTU21D;51290;45.060;38.948;2024-02-04T04:55:36;6.97;72.70
64833;HTU21D;51290;45.060;38.948;2024-02-04T04:58:02;6.98;72.64
64833;HTU21D;51290;45.060;38.948;2024-02-04T05:00:28;6.98;72.63
64833;HTU21D;51290;45.060;38.948;2024-02-04T05:02:54;6.97;72.64
64833;HTU21D;51290;45.060;38.948;2024-02-04T05:05:20;6.95;72.64
64833;HTU21D;51290;45.060;38.948;2024-02-04T05:07:46;6.94;72.66
64833;HTU21D;51290;45.060;38.948;2024-02-04T05:10:12;6.90;72.71
64833;HTU21D;51290;45.060;38.948;2024-02-04T05:12:38;6.88;72.80
64833;HTU21D;51290;45.060;38.948;2024-02-04T05:15:05;6.84;72.88
64833;HTU21D;51290;45.060;38.948;2024-02-04T05:17:31;6.81;72.99
64833;HTU21D;51290;45.060;38.948;2024-02-04T05:19:58;6.79;73.12
64833;HTU21D;51290;45.060;38.948;2024-02-04T05:22:24;6.74;73.27
64833;HTU21D;51290;45.060;38.948;2024-02-04T05:24:50;6.69;73.61
64833;HTU21D;51290;45.060;38.948;2024-02-04T05:27:15;6.64;73.74
64833;HTU21D;51290;45.060;38.948;2024-02-04T05:29:42;6.59;73.84
64833;HTU21D;51290;45.060;38.948;2024-02-04T05:32:08;6.56;73.98
64833;HTU21D;51290;45.060;38.948;2024-02-04T05:34:34;6.52;74.20
64833;HTU21D;51290;45.060;38.948;2024-02-04T05:37:00;6.49;74.34
64833;HTU21D;51290;45.060;38.948;2024-02-04T05:39:26;6.48;74.47
64833;HTU21D;51290;45.060;38.948;2024-02-04T05:41:52;6.48;74.60
64833;HTU21D;51290;45.060;38.948;2024-02-04T05:44:18;6.50;74.64
64833;HTU21D;51290;45.060;38.948;2024-02-04T05:46:44;6.51;74.70
64833;HTU21D;51290;45.060;38.948;2024-02-04T05:49:10;6.52;74.72
64833;HTU21D;51290;45.060;38.948;2024-02-04T05:51:40;6.52;74.72
64833;HTU21D;51290;45.060;38.948;2024-02-04T05:54:07;6.51;74.77
64833;HTU21D;51290;45.060;38.948;2024-02-04T05:56:33;6.49;74.85
64833;HTU21D;51290;45.060;38.948;2024-02-04T05:58:59;6.46;74.96
64833;HTU21D;51290;45.060;38.948;2024-02-04T06:01:25;6.46;75.11
64833;HTU21D;51290;45.060;38.948;2024-02-04T06:03:51;6.46;75.30
64833;HTU21D;51290;45.060;38.948;2024-02-04T06:06:17;6.45;75.34
64833;HTU21D;51290;45.060;38.948;2024-02-04T06:08:48;6.48;75.44
64833;HTU21D;51290;45.060;38.948;2024-02-04T06:11:15;6.49;75.50
64833;HTU21D;51290;45.060;38.948;2024-02-04T06:13:44;6.53;75.57
64833;HTU21D;51290;45.060;38.948;2024-02-04T06:16:10;6.57;75.63
64833;HTU21D;51290;45.060;38.948;2024-02-04T06:18:40;6.61;75.60
64833;HTU21D;51290;45.060;38.948;2024-02-04T06:21:07;6.66;75.56
64833;HTU21D;51290;45.060;38.948;2024-02-04T06:23:33;6.70;75.54
64833;HTU21D;51290;45.060;38.948;2024-02-04T06:26:04;6.74;75.50
64833;HTU21D;51290;45.060;38.948;2024-02-04T06:28:30;6.79;75.45
64833;HTU21D;51290;45.060;38.948;2024-02-04T06:30:56;6.84;75.41
64833;HTU21D;51290;45.060;38.948;2024-02-04T06:33:23;6.87;75.41
64833;HTU21D;51290;45.060;38.948;2024-02-04T06:35:50;6.93;75.39
64833;HTU21D;51290;45.060;38.948;2024-02-04T06:38:16;6.96;75.33
64833;HTU21D;51290;45.060;38.948;2024-02-04T06:40:42;6.99;75.25
64833;HTU21D;51290;45.060;38.948;2024-02-04T06:43:08;7.00;75.12
64833;HTU21D;51290;45.060;38.948;2024-02-04T06:45:34;6.97;75.06
64833;HTU21D;51290;45.060;38.948;2024-02-04T06:48:00;6.94;75.11
64833;HTU21D;51290;45.060;38.948;2024-02-04T06:50:26;6.87;75.22
64833;HTU21D;51290;45.060;38.948;2024-02-04T06:52:52;6.84;75.42
64833;HTU21D;51290;45.060;38.948;2024-02-04T06:55:18;6.79;75.60
64833;HTU21D;51290;45.060;38.948;2024-02-04T06:57:44;6.76;75.73
64833;HTU21D;51290;45.060;38.948;2024-02-04T07:00:10;6.72;75.87
64833;HTU21D;51290;45.060;38.948;2024-02-04T07:02:37;6.74;76.05
64833;HTU21D;51290;45.060;38.948;2024-02-04T07:05:04;6.75;76.13
64833;HTU21D;51290;45.060;38.948;2024-02-04T07:07:30;6.80;76.21
64833;HTU21D;51290;45.060;38.948;2024-02-04T07:09:57;6.84;76.27
64833;HTU21D;51290;45.060;38.948;2024-02-04T07:12:23;6.86;76.34
64833;HTU21D;51290;45.060;38.948;2024-02-04T07:14:49;6.88;76.44
64833;HTU21D;51290;45.060;38.948;2024-02-04T07:17:15;6.89;76.50
64833;HTU21D;51290;45.060;38.948;2024-02-04T07:19:41;6.91;76.56
64833;HTU21D;51290;45.060;38.948;2024-02-04T07:22:07;6.94;76.63
64833;HTU21D;51290;45.060;38.948;2024-02-04T07:24:33;6.95;76.72
64833;HTU21D;51290;45.060;38.948;2024-02-04T07:27:00;6.98;76.75
64833;HTU21D;51290;45.060;38.948;2024-02-04T07:29:26;6.99;76.76
64833;HTU21D;51290;45.060;38.948;2024-02-04T07:31:52;7.02;76.79
64833;HTU21D;51290;45.060;38.948;2024-02-04T07:34:18;7.04;76.74
64833;HTU21D;51290;45.060;38.948;2024-02-04T07:36:44;7.04;76.70
64833;HTU21D;51290;45.060;38.948;2024-02-04T07:39:13;7.03;76.71
64833;HTU21D;51290;45.060;38.948;2024-02-04T07:41:39;7.03;76.72
64833;HTU21D;51290;45.060;38.948;2024-02-04T07:44:05;6.99;76.75
64833;HTU21D;51290;45.060;38.948;2024-02-04T07:46:31;6.98;76.88
64833;HTU21D;51290;45.060;38.948;2024-02-04T07:48:57;6.97;76.95
64833;HTU21D;51290;45.060;38.948;2024-02-04T07:51:23;6.95;77.14
64833;HTU21D;51290;45.060;38.948;2024-02-04T07:53:49;6.96;77.22
64833;HTU21D;51290;45.060;38.948;2024-02-04T07:56:15;6.96;77.27
64833;HTU21D;51290;45.060;38.948;2024-02-04T07:58:41;6.97;77.34
64833;HTU21D;51290;45.060;38.948;2024-02-04T08:01:07;7.01;77.37
64833;HTU21D;51290;45.060;38.948;2024-02-04T08:03:33;7.01;77.40
64833;HTU21D;51290;45.060;38.948;2024-02-04T08:05:59;7.01;77.40
64833;HTU21D;51290;45.060;38.948;2024-02-04T08:08:26;7.01;77.41
64833;HTU21D;51290;45.060;38.948;2024-02-04T08:10:52;7.02;77.49
64833;HTU21D;51290;45.060;38.948;2024-02-04T08:13:18;7.02;77.56
64833;HTU21D;51290;45.060;38.948;2024-02-04T08:15:44;7.03;77.62
64833;HTU21D;51290;45.060;38.948;2024-02-04T08:18:10;7.04;77.63
64833;HTU21D;51290;45.060;38.948;2024-02-04T08:20:36;7.05;77.73
64833;HTU21D;51290;45.060;38.948;2024-02-04T08:23:03;7.03;77.86
64833;HTU21D;51290;45.060;38.948;2024-02-04T08:25:29;7.00;78.14
64833;HTU21D;51290;45.060;38.948;2024-02-04T08:27:55;6.91;78.58
64833;HTU21D;51290;45.060;38.948;2024-02-04T08:30:21;6.86;79.08
64833;HTU21D;51290;45.060;38.948;2024-02-04T08:32:47;6.82;79.56
64833;HTU21D;51290;45.060;38.948;2024-02-04T08:35:13;6.79;79.83
64833;HTU21D;51290;45.060;38.948;2024-02-04T08:37:39;6.79;80.03
64833;HTU21D;51290;45.060;38.948;2024-02-04T08:40:06;6.83;80.14
64833;HTU21D;51290;45.060;38.948;2024-02-04T08:42:32;6.86;80.19
64833;HTU21D;51290;45.060;38.948;2024-02-04T08:44:58;6.91;80.23
64833;HTU21D;51290;45.060;38.948;2024-02-04T08:47:24;6.98;80.18
64833;HTU21D;51290;45.060;38.948;2024-02-04T08:49:50;7.04;80.14
64833;HTU21D;51290;45.060;38.948;2024-02-04T08:52:16;7.09;80.08
64833;HTU21D;51290;45.060;38.948;2024-02-04T08:54:42;7.15;80.07
64833;HTU21D;51290;45.060;38.948;2024-02-04T08:57:08;7.22;80.05
64833;HTU21D;51290;45.060;38.948;2024-02-04T08:59:35;7.24;80.02
64833;HTU21D;51290;45.060;38.948;2024-02-04T09:02:01;7.25;80.03
64833;HTU21D;51290;45.060;38.948;2024-02-04T09:04:27;7.27;80.14
64833;HTU21D;51290;45.060;38.948;2024-02-04T09:06:53;7.29;80.31
64833;HTU21D;51290;45.060;38.948;2024-02-04T09:09:19;7.34;80.40
64833;HTU21D;51290;45.060;38.948;2024-02-04T09:11:45;7.41;80.49
64833;HTU21D;51290;45.060;38.948;2024-02-04T09:14:11;7.48;80.49
64833;HTU21D;51290;45.060;38.948;2024-02-04T09:16:40;7.60;80.49
64833;HTU21D;51290;45.060;38.948;2024-02-04T09:19:06;7.68;80.30
64833;HTU21D;51290;45.060;38.948;2024-02-04T09:21:32;7.74;80.22
64833;HTU21D;51290;45.060;38.948;2024-02-04T09:23:58;7.79;80.25
64833;HTU21D;51290;45.060;38.948;2024-02-04T09:26:24;7.87;80.25
64833;HTU21D;51290;45.060;38.948;2024-02-04T09:28:50;7.96;80.17
64833;HTU21D;51290;45.060;38.948;2024-02-04T09:31:16;8.03;80.03
64833;HTU21D;51290;45.060;38.948;2024-02-04T09:33:42;8.11;79.91
64833;HTU21D;51290;45.060;38.948;2024-02-04T09:36:08;8.18;79.95
64833;HTU21D;51290;45.060;38.948;2024-02-04T09:38:34;8.26;79.87
64833;HTU21D;51290;45.060;38.948;2024-02-04T09:41:01;8.34;79.66
64833;HTU21D;51290;45.060;38.948;2024-02-04T09:43:33;8.42;79.54
64833;HTU21D;51290;45.060;38.948;2024-02-04T09:46:01;8.44;79.40
64833;HTU21D;51290;45.060;38.948;2024-02-04T09:48:31;8.46;79.36
64833;HTU21D;51290;45.060;38.948;2024-02-04T09:50:57;8.52;79.32
64833;HTU21D;51290;45.060;38.948;2024-02-04T09:53:33;8.59;79.14
64833;HTU21D;51290;45.060;38.948;2024-02-04T09:56:02;8.59;78.95
64833;HTU21D;51290;45.060;38.948;2024-02-04T09:58:29;8.56;78.94
64833;HTU21D;51290;45.060;38.948;2024-02-04T10:00:55;8.55;79.06
64833;HTU21D;51290;45.060;38.948;2024-02-04T10:03:21;8.57;79.16
64833;HTU21D;51290;45.060;38.948;2024-02-04T10:05:47;8.64;79.13
64833;HTU21D;51290;45.060;38.948;2024-02-04T10:08:14;8.73;79.04
64833;HTU21D;51290;45.060;38.948;2024-02-04T10:10:40;8.82;78.91
64833;HTU21D;51290;45.060;38.948;2024-02-04T10:13:10;8.93;78.85
64833;HTU21D;51290;45.060;38.948;2024-02-04T10:15:36;9.08;78.70
64833;HTU21D;51290;45.060;38.948;2024-02-04T10:18:04;9.22;78.44
64833;HTU21D;51290;45.060;38.948;2024-02-04T10:20:31;9.31;78.21
64833;HTU21D;51290;45.060;38.948;2024-02-04T10:22:57;9.36;78.10
64833;HTU21D;51290;45.060;38.948;2024-02-04T10:25:23;9.41;78.03
64833;HTU21D;51290;45.060;38.948;2024-02-04T10:27:49;9.49;77.88
64833;HTU21D;51290;45.060;38.948;2024-02-04T10:30:15;9.52;77.76
64833;HTU21D;51290;45.060;38.948;2024-02-04T10:32:44;9.53;77.72
64833;HTU21D;51290;45.060;38.948;2024-02-04T10:35:11;9.59;77.87
64833;HTU21D;51290;45.060;38.948;2024-02-04T10:37:38;9.62;77.75
64833;HTU21D;51290;45.060;38.948;2024-02-04T10:40:04;9.64;77.47
64833;HTU21D;51290;45.060;38.948;2024-02-04T10:42:31;9.63;77.15
64833;HTU21D;51290;45.060;38.948;2024-02-04T10:44:58;9.56;76.95
64833;HTU21D;51290;45.060;38.948;2024-02-04T10:47:31;9.50;76.90
64833;HTU21D;51290;45.060;38.948;2024-02-04T10:49:59;9.48;77.05
64833;HTU21D;51290;45.060;38.948;2024-02-04T10:52:36;9.50;76.89
64833;HTU21D;51290;45.060;38.948;2024-02-04T10:55:09;9.53;76.90
64833;HTU21D;51290;45.060;38.948;2024-02-04T10:57:36;9.59;76.79
64833;HTU21D;51290;45.060;38.948;2024-02-04T11:00:03;9.65;76.55
64833;HTU21D;51290;45.060;38.948;2024-02-04T11:02:38;9.67;76.17
64833;HTU21D;51290;45.060;38.948;2024-02-04T11:05:05;9.65;75.94
64833;HTU21D;51290;45.060;38.948;2024-02-04T11:07:32;9.62;75.95
64833;HTU21D;51290;45.060;38.948;2024-02-04T11:10:02;9.61;75.89
64833;HTU21D;51290;45.060;38.948;2024-02-04T11:12:32;9.64;75.99
64833;HTU21D;51290;45.060;38.948;2024-02-04T11:15:03;9.68;75.94
64833;HTU21D;51290;45.060;38.948;2024-02-04T11:20:27;9.81;75.91
64833;HTU21D;51290;45.060;38.948;2024-02-04T11:28:15;9.93;75.85
64833;HTU21D;51290;45.060;38.948;2024-02-04T11:30:43;9.93;75.76
64833;HTU21D;51290;45.060;38.948;2024-02-04T11:33:11;9.94;75.79
64833;HTU21D;51290;45.060;38.948;2024-02-04T11:35:37;9.95;75.70
64833;HTU21D;51290;45.060;38.948;2024-02-04T11:38:03;9.98;75.58
64833;HTU21D;51290;45.060;38.948;2024-02-04T11:40:39;10.03;75.38
64833;HTU21D;51290;45.060;38.948;2024-02-04T11:43:06;10.04;75.09
64833;HTU21D;51290;45.060;38.948;2024-02-04T11:45:36;10.00;75.02
64833;HTU21D;51290;45.060;38.948;2024-02-04T11:48:07;9.97;74.94
64833;HTU21D;51290;45.060;38.948;2024-02-04T11:50:34;9.95;75.06
64833;HTU21D;51290;45.060;38.948;2024-02-04T11:53:11;9.98;74.99
64833;HTU21D;51290;45.060;38.948;2024-02-04T11:55:40;10.03;74.86
64833;HTU21D;51290;45.060;38.948;2024-02-04T11:58:06;10.05;74.76
64833;HTU21D;51290;45.060;38.948;2024-02-04T12:00:33;10.06;74.73
64833;HTU21D;51290;45.060;38.948;2024-02-04T12:03:01;10.10;74.66
64833;HTU21D;51290;45.060;38.948;2024-02-04T12:05:30;10.15;74.58
64833;HTU21D;51290;45.060;38.948;2024-02-04T12:07:56;10.20;74.44
64833;HTU21D;51290;45.060;38.948;2024-02-04T12:10:22;10.20;74.33
64833;HTU21D;51290;45.060;38.948;2024-02-04T12:12:52;10.20;74.32
64833;HTU21D;51290;45.060;38.948;2024-02-04T12:15:18;10.21;74.18
64833;HTU21D;51290;45.060;38.948;2024-02-04T12:17:44;10.21;74.10
64833;HTU21D;51290;45.060;38.948;2024-02-04T12:20:10;10.20;74.05
64833;HTU21D;51290;45.060;38.948;2024-02-04T12:22:36;10.19;73.96
64833;HTU21D;51290;45.060;38.948;2024-02-04T12:25:03;10.16;73.86
64833;HTU21D;51290;45.060;38.948;2024-02-04T12:27:29;10.12;73.81
64833;HTU21D;51290;45.060;38.948;2024-02-04T12:29:55;10.10;73.96
64833;HTU21D;51290;45.060;38.948;2024-02-04T12:32:21;10.10;74.02
64833;HTU21D;51290;45.060;38.948;2024-02-04T12:34:48;10.09;74.02
64833;HTU21D;51290;45.060;38.948;2024-02-04T12:37:17;10.10;73.88
64833;HTU21D;51290;45.060;38.948;2024-02-04T12:39:44;10.08;73.78
64833;HTU21D;51290;45.060;38.948;2024-02-04T12:42:10;10.06;73.82
64833;HTU21D;51290;45.060;38.948;2024-02-04T12:44:36;10.05;73.79
64833;HTU21D;51290;45.060;38.948;2024-02-04T12:47:02;10.03;73.80
64833;HTU21D;51290;45.060;38.948;2024-02-04T12:49:28;9.98;73.82
64833;HTU21D;51290;45.060;38.948;2024-02-04T12:52:04;9.95;73.90
64833;HTU21D;51290;45.060;38.948;2024-02-04T12:54:30;9.94;73.93
64833;HTU21D;51290;45.060;38.948;2024-02-04T12:56:56;9.90;73.98
64833;HTU21D;51290;45.060;38.948;2024-02-04T12:59:33;9.89;74.04
64833;HTU21D;51290;45.060;38.948;2024-02-04T13:02:09;9.86;74.09
64833;HTU21D;51290;45.060;38.948;2024-02-04T13:04:36;9.85;74.20
64833;HTU21D;51290;45.060;38.948;2024-02-04T13:07:07;9.85;74.25
64833;HTU21D;51290;45.060;38.948;2024-02-04T13:09:35;9.84;74.24
64833;HTU21D;51290;45.060;38.948;2024-02-04T13:12:05;9.86;74.21
64833;HTU21D;51290;45.060;38.948;2024-02-04T13:14:31;9.85;74.18
64833;HTU21D;51290;45.060;38.948;2024-02-04T13:16:57;9.85;74.15
64833;HTU21D;51290;45.060;38.948;2024-02-04T13:19:24;9.81;74.14
64833;HTU21D;51290;45.060;38.948;2024-02-04T13:21:50;9.81;74.15
64833;HTU21D;51290;45.060;38.948;2024-02-04T13:24:16;9.80;74.18
64833;HTU21D;51290;45.060;38.948;2024-02-04T13:26:42;9.79;74.09
64833;HTU21D;51290;45.060;38.948;2024-02-04T13:29:08;9.78;74.06
64833;HTU21D;51290;45.060;38.948;2024-02-04T13:31:34;9.75;74.01
64833;HTU21D;51290;45.060;38.948;2024-02-04T13:34:00;9.71;74.06
64833;HTU21D;51290;45.060;38.948;2024-02-04T13:36:29;9.70;74.10
64833;HTU21D;51290;45.060;38.948;2024-02-04T13:38:56;9.68;74.14
64833;HTU21D;51290;45.060;38.948;2024-02-04T13:41:22;9.67;74.22
64833;HTU21D;51290;45.060;38.948;2024-02-04T13:43:49;9.67;74.18
64833;HTU21D;51290;45.060;38.948;2024-02-04T13:46:16;9.66;74.17
64833;HTU21D;51290;45.060;38.948;2024-02-04T13:48:42;9.66;74.28
64833;HTU21D;51290;45.060;38.948;2024-02-04T13:51:08;9.67;74.34
64833;HTU21D;51290;45.060;38.948;2024-02-04T13:53:34;9.67;74.36
64833;HTU21D;51290;45.060;38.948;2024-02-04T13:56:01;9.66;74.33
64833;HTU21D;51290;45.060;38.948;2024-02-04T13:58:27;9.64;74.33
64833;HTU21D;51290;45.060;38.948;2024-02-04T14:00:53;9.62;74.31
64833;HTU21D;51290;45.060;38.948;2024-02-04T14:03:19;9.57;74.41
64833;HTU21D;51290;45.060;38.948;2024-02-04T14:05:45;9.55;74.44
64833;HTU21D;51290;45.060;38.948;2024-02-04T14:08:11;9.53;74.48
64833;HTU21D;51290;45.060;38.948;2024-02-04T14:10:37;9.50;74.53
64833;HTU21D;51290;45.060;38.948;2024-02-04T14:13:04;9.48;74.55
64833;HTU21D;51290;45.060;38.948;2024-02-04T14:15:30;9.44;74.60
64833;HTU21D;51290;45.060;38.948;2024-02-04T14:17:57;9.41;74.65
64833;HTU21D;51290;45.060;38.948;2024-02-04T14:20:23;9.37;74.67
64833;HTU21D;51290;45.060;38.948;2024-02-04T14:22:50;9.36;74.73
64833;HTU21D;51290;45.060;38.948;2024-02-04T14:25:19;9.32;74.76
64833;HTU21D;51290;45.060;38.948;2024-02-04T14:27:45;9.30;74.83
64833;HTU21D;51290;45.060;38.948;2024-02-04T14:30:11;9.27;74.88
64833;HTU21D;51290;45.060;38.948;2024-02-04T14:32:37;9.25;74.96
64833;HTU21D;51290;45.060;38.948;2024-02-04T14:35:03;9.23;74.99
64833;HTU21D;51290;45.060;38.948;2024-02-04T14:37:30;9.21;75.02
64833;HTU21D;51290;45.060;38.948;2024-02-04T14:39:58;9.19;75.07
64833;HTU21D;51290;45.060;38.948;2024-02-04T14:42:26;9.15;75.17
64833;HTU21D;51290;45.060;38.948;2024-02-04T14:44:52;9.12;75.26
64833;HTU21D;51290;45.060;38.948;2024-02-04T14:47:18;9.09;75.33
64833;HTU21D;51290;45.060;38.948;2024-02-04T14:49:44;9.06;75.46
64833;HTU21D;51290;45.060;38.948;2024-02-04T14:52:10;9.03;75.53
64833;HTU21D;51290;45.060;38.948;2024-02-04T14:54:36;9.01;75.58
64833;HTU21D;51290;45.060;38.948;2024-02-04T14:57:05;8.98;75.67
64833;HTU21D;51290;45.060;38.948;2024-02-04T14:59:31;8.95;75.74
64833;HTU21D;51290;45.060;38.948;2024-02-04T15:02:03;8.95;75.80
64833;HTU21D;51290;45.060;38.948;2024-02-04T15:04:33;8.93;75.86
64833;HTU21D;51290;45.060;38.948;2024-02-04T15:06:59;8.92;75.93
64833;HTU21D;51290;45.060;38.948;2024-02-04T15:09:31;8.92;76.00
64833;HTU21D;51290;45.060;38.948;2024-02-04T15:11:58;8.91;76.05
64833;HTU21D;51290;45.060;38.948;2024-02-04T15:14:24;8.91;76.09
64833;HTU21D;51290;45.060;38.948;2024-02-04T15:16:50;8.92;76.12
64833;HTU21D;51290;45.060;38.948;2024-02-04T15:19:17;8.92;76.13
64833;HTU21D;51290;45.060;38.948;2024-02-04T15:21:43;8.93;76.11
64833;HTU21D;51290;45.060;38.948;2024-02-04T15:24:10;8.94;76.12